Time;durP1;ratioP1;P1;durP2;ratioP2;P2;SDS_P1;SDS_P2;PMS_P1;PMS_P2;Temp;Humidity;BMP_temperature;BMP_pressure;BME280_temperature;BME280_humidity;BME280_pressure;Samples;Min_cycle;Max_cycle;Signal;HPM_P1;HPM_P2
2023/07/28 00:00:35;;;;;;;3.70;0.90;;;;;;;19.64;59.65;96038.00;10526418;28;20498;-28
2023/07/28 00:05:36;;;;;;;2.50;1.07;;;;;;;19.62;59.66;96039.75;10512798;28;20035;-28
2023/07/28 00:10:41;;;;;;;1.50;0.85;;;;;;;19.60;59.73;96029.59;10532547;28;20279;-27
2023/07/28 00:15:42;;;;;;;1.27;0.90;;;;;;;19.60;59.40;96032.13;10529666;28;20031;-28
2023/07/28 00:20:42;;;;;;;1.10;1.00;;;;;;;19.59;59.64;96027.09;10536069;28;20039;-28
2023/07/28 00:25:43;;;;;;;1.10;0.80;;;;;;;19.59;59.68;96029.66;10536450;28;20056;-29
2023/07/28 00:30:43;;;;;;;5.40;1.40;;;;;;;19.62;59.89;96032.13;10532275;28;20282;-29
2023/07/28 00:35:43;;;;;;;1.50;1.40;;;;;;;19.79;64.17;96030.16;10526239;28;20342;-28
2023/07/28 00:40:44;;;;;;;1.73;1.25;;;;;;;19.81;63.73;96024.19;10535411;28;20676;-28
2023/07/28 00:45:46;;;;;;;1.27;0.98;;;;;;;19.76;61.26;96027.69;10526385;28;20036;-28
2023/07/28 00:50:48;;;;;;;1.20;1.10;;;;;;;19.68;59.84;96024.41;10540491;28;20039;-29
2023/07/28 00:55:49;;;;;;;1.42;1.10;;;;;;;19.65;59.47;96029.53;10516600;28;20036;-29
2023/07/28 01:00:49;;;;;;;2.05;1.25;;;;;;;19.62;59.68;96029.59;10524060;28;20036;-29
2023/07/28 01:06:09;;;;;;;1.17;1.05;;;;;;;19.59;59.36;96024.56;10510577;28;20772;-29
2023/07/28 01:11:09;;;;;;;1.10;1.00;;;;;;;19.60;59.56;96032.13;10526771;28;20036;-28
2023/07/28 01:16:10;;;;;;;2.80;0.82;;;;;;;19.59;59.67;96037.25;10511668;28;20040;-28
2023/07/28 01:21:21;;;;;;;0.90;0.80;;;;;;;19.60;59.62;96046.56;10533798;28;20574;-29
2023/07/28 01:26:37;;;;;;;1.40;1.13;;;;;;;19.64;61.35;96043.94;10521762;28;20031;-29
2023/07/28 01:31:39;;;;;;;3.07;1.40;;;;;;;19.80;66.09;96047.06;10519924;28;20031;-29
2023/07/28 01:36:42;;;;;;;1.83;1.30;;;;;;;19.81;62.83;96041.97;10533090;28;20293;-29
2023/07/28 01:41:44;;;;;;;0.98;0.95;;;;;;;19.75;61.69;96038.69;10498364;28;20062;-29
2023/07/28 01:46:44;;;;;;;1.27;0.93;;;;;;;19.68;60.32;96049.81;10523385;28;20406;-28
2023/07/28 01:51:45;;;;;;;1.43;1.00;;;;;;;19.66;59.94;96056.63;10529480;28;20907;-29
2023/07/28 01:56:46;;;;;;;1.05;0.98;;;;;;;19.63;60.25;96056.66;10529561;28;20872;-28
2023/07/28 02:01:46;;;;;;;1.33;1.17;;;;;;;19.62;60.06;96067.69;10510601;28;20036;-28
2023/07/28 02:06:47;;;;;;;0.95;0.88;;;;;;;19.62;59.99;96067.69;10533078;28;20382;-28
2023/07/28 02:11:47;;;;;;;1.45;1.05;;;;;;;19.60;59.94;96077.03;10509811;28;20371;-28
2023/07/28 02:16:47;;;;;;;3.87;1.20;;;;;;;19.60;59.86;96082.09;10515264;28;20028;-32
2023/07/28 02:21:48;;;;;;;2.20;1.20;;;;;;;19.66;62.80;96082.03;10505829;28;20792;-29
2023/07/28 02:26:48;;;;;;;1.95;1.73;;;;;;;19.81;64.99;96081.75;10527033;28;20293;-29
2023/07/28 02:31:49;;;;;;;2.00;1.30;;;;;;;19.84;64.30;96084.28;10518537;28;20514;-28
2023/07/28 02:36:49;;;;;;;1.40;1.10;;;;;;;19.79;62.32;96080.97;10509793;28;20282;-28
2023/07/28 02:41:50;;;;;;;1.10;1.00;;;;;;;19.72;60.72;96097.16;10503444;28;20858;-28
2023/07/28 02:46:50;;;;;;;1.17;0.90;;;;;;;19.67;60.31;96099.75;10522220;28;20044;-28
2023/07/28 02:51:51;;;;;;;1.27;1.10;;;;;;;19.64;60.44;96109.13;10539866;28;20028;-28
2023/07/28 02:56:51;;;;;;;3.17;1.13;;;;;;;19.64;60.31;96104.03;10528904;28;20039;-29
2023/07/28 03:01:52;;;;;;;1.70;1.27;;;;;;;19.62;59.98;96108.31;10539892;28;20292;-28
2023/07/28 03:06:52;;;;;;;1.80;1.52;;;;;;;19.62;60.21;96105.75;10516796;28;20081;-28
2023/07/28 03:11:53;;;;;;;1.55;1.00;;;;;;;19.61;60.15;96111.72;10530939;28;20055;-29
2023/07/28 03:16:53;;;;;;;1.60;1.17;;;;;;;19.62;60.25;96100.69;10535139;28;20035;-29
2023/07/28 03:21:54;;;;;;;3.43;1.50;;;;;;;19.79;64.99;96098.75;10515378;28;20872;-29
2023/07/28 03:26:54;;;;;;;2.25;1.60;;;;;;;19.85;65.75;96101.19;10517095;28;20282;-28
2023/07/28 03:31:55;;;;;;;4.30;1.53;;;;;;;19.80;62.86;96101.25;10520842;28;20478;-28
2023/07/28 03:36:55;;;;;;;2.88;1.52;;;;;;;19.73;61.63;96103.91;10518316;28;20038;-29
2023/07/28 03:41:56;;;;;;;1.00;0.85;;;;;;;19.68;60.81;96096.34;10502650;28;20028;-29
2023/07/28 03:46:57;;;;;;;1.95;1.02;;;;;;;19.65;60.44;96095.56;10516350;28;20028;-29
2023/07/28 03:51:58;;;;;;;1.38;1.27;;;;;;;19.69;62.78;96087.03;10536239;28;20028;-28
2023/07/28 03:56:58;;;;;;;2.45;1.52;;;;;;;19.72;61.21;96087.00;10506079;28;20028;-28
2023/07/28 04:01:58;;;;;;;1.43;1.20;;;;;;;19.72;64.10;96082.75;10537002;28;20028;-29
2023/07/28 04:06:59;;;;;;;3.38;1.90;;;;;;;19.77;65.09;96085.22;10533511;28;20286;-29
2023/07/28 04:12:00;;;;;;;1.80;1.63;;;;;;;19.78;65.78;96087.75;10516770;28;20032;-29
2023/07/28 04:17:00;;;;;;;6.13;2.07;;;;;;;19.85;66.56;96089.31;10538953;28;20282;-28
2023/07/28 04:22:01;;;;;;;3.77;1.83;;;;;;;19.89;66.36;96087.56;10529506;28;20299;-28
2023/07/28 04:27:02;;;;;;;4.40;1.98;;;;;;;19.86;66.55;96095.25;10521015;28;20316;-29
2023/07/28 04:32:03;;;;;;;2.65;1.90;;;;;;;19.81;65.00;96092.78;10528253;28;20390;-29
2023/07/28 04:37:07;;;;;;;2.00;1.80;;;;;;;19.79;63.84;96097.06;10516847;28;20123;-29
2023/07/28 04:42:24;;;;;;;1.45;1.23;;;;;;;19.75;62.23;96090.31;10533782;28;20036;-29
2023/07/28 04:47:25;;;;;;;2.88;1.58;;;;;;;19.72;61.98;96103.06;10517325;28;20442;-29
2023/07/28 04:52:25;;;;;;;2.17;1.33;;;;;;;19.68;61.67;96103.16;10510927;28;20029;-30
2023/07/28 04:57:41;;;;;;;4.13;2.00;;;;;;;19.70;61.78;96099.72;10495863;28;20548;-29
2023/07/28 05:02:42;;;;;;;2.47;1.40;;;;;;;19.68;61.11;96090.44;10531690;28;20048;-29
2023/07/28 05:07:42;;;;;;;4.50;1.70;;;;;;;19.68;61.33;96105.69;10512129;28;20032;-29
2023/07/28 05:12:47;;;;;;;5.50;2.17;;;;;;;19.85;65.26;96099.47;10515044;28;20301;-28
2023/07/28 05:17:47;;;;;;;3.42;1.85;;;;;;;19.90;64.55;96101.94;10507663;28;20040;-28
2023/07/28 05:23:05;;;;;;;4.50;1.23;;;;;;;19.84;62.71;96123.19;10507774;28;20032;-29
2023/07/28 05:28:06;;;;;;;2.57;1.37;;;;;;;19.77;62.82;96106.38;10515024;28;20093;-28
2023/07/28 05:33:08;;;;;;;3.80;1.58;;;;;;;19.77;61.73;96115.72;10513276;28;20036;-30
2023/07/28 05:38:18;;;;;;;3.65;1.85;;;;;;;19.73;61.53;96119.13;10507078;28;20036;-28
2023/07/28 05:43:18;;;;;;;1.40;1.23;;;;;;;19.74;61.49;96120.81;10523806;28;20483;-27
2023/07/28 05:48:19;;;;;;;3.08;1.60;;;;;;;19.70;61.06;96114.97;10527115;28;20028;-28
2023/07/28 05:53:23;;;;;;;3.90;1.70;;;;;;;19.70;61.17;96131.88;10514520;28;20490;-29
2023/07/28 05:58:28;;;;;;;7.30;1.95;;;;;;;19.71;61.05;96141.19;10512669;28;20401;-29
2023/07/28 06:03:29;;;;;;;6.17;1.53;;;;;;;19.79;64.35;96144.47;10509120;28;20031;-29
2023/07/28 06:08:38;;;;;;;4.05;2.15;;;;;;;19.90;65.41;96140.06;10513284;28;20281;-28
2023/07/28 06:13:39;;;;;;;3.85;1.98;;;;;;;19.92;63.96;96143.44;10517626;28;20035;-29
2023/07/28 06:18:39;;;;;;;3.00;1.67;;;;;;;19.87;62.76;96153.66;10497559;28;20402;-28
2023/07/28 06:23:45;;;;;;;3.20;1.70;;;;;;;19.83;62.64;96157.09;10514154;28;20081;-28
2023/07/28 06:28:45;;;;;;;4.00;1.25;;;;;;;19.79;63.19;96160.56;10488627;28;20024;-28
2023/07/28 06:33:47;;;;;;;2.83;1.70;;;;;;;19.80;63.37;96161.38;10507494;28;20074;-28
2023/07/28 06:38:49;;;;;;;1.42;1.27;;;;;;;19.68;61.19;96164.09;10503334;28;20383;-29
2023/07/28 06:43:49;;;;;;;4.70;1.50;;;;;;;19.73;61.36;96167.41;10509233;28;20038;-30
2023/07/28 06:48:49;;;;;;;4.63;1.70;;;;;;;19.73;62.74;96170.78;10517253;28;20023;-31
2023/07/28 06:53:51;;;;;;;4.63;1.33;;;;;;;19.71;61.28;96167.44;10503653;28;20289;-29
2023/07/28 06:58:51;;;;;;;4.78;1.67;;;;;;;19.79;63.89;96185.94;10506760;28;20439;-28
2023/07/28 07:03:51;;;;;;;3.63;1.90;;;;;;;19.87;65.94;96184.16;10511840;28;20051;-28
2023/07/28 07:08:52;;;;;;;2.90;1.83;;;;;;;19.93;64.27;96193.38;10508101;28;20558;-29
2023/07/28 07:13:53;;;;;;;2.30;1.50;;;;;;;19.88;62.95;96190.06;10525185;28;20097;-29
2023/07/28 07:18:53;;;;;;;2.80;1.40;;;;;;;19.78;61.70;96184.28;10506975;28;20020;-29
2023/07/28 07:23:53;;;;;;;4.25;1.35;;;;;;;19.76;61.37;96190.22;10520085;28;20812;-29
2023/07/28 07:29:00;;;;;;;3.17;1.52;;;;;;;19.74;61.48;96194.47;10537908;28;20032;-29
2023/07/28 07:34:00;;;;;;;1.13;1.00;;;;;;;19.72;61.57;96198.72;10508367;28;20025;-28
2023/07/28 07:39:01;;;;;;;1.67;1.40;;;;;;;19.71;61.31;96199.59;10536601;28;20042;-29
2023/07/28 07:44:02;;;;;;;1.40;1.20;;;;;;;19.70;61.00;96205.53;10528340;28;20238;-29
2023/07/28 07:49:05;;;;;;;1.73;1.40;;;;;;;19.70;61.28;96211.47;10525340;28;20085;-29
2023/07/28 07:54:05;;;;;;;4.57;2.15;;;;;;;19.83;65.04;96227.41;10513759;28;20405;-29
2023/07/28 07:59:06;;;;;;;3.57;2.10;;;;;;;19.90;65.38;96213.72;10526585;28;20035;-29
2023/07/28 08:04:07;;;;;;;3.73;2.07;;;;;;;19.91;63.61;96210.34;10528163;28;20039;-28
2023/07/28 08:09:09;;;;;;;2.55;1.70;;;;;;;19.85;62.97;96221.41;10528429;28;20024;-28
2023/07/28 08:14:10;;;;;;;1.73;1.60;;;;;;;19.80;61.92;96220.66;10532687;28;20057;-28
2023/07/28 08:19:10;;;;;;;3.90;2.10;;;;;;;19.78;61.66;96231.69;10518479;28;20132;-28
2023/07/28 08:24:11;;;;;;;2.65;1.60;;;;;;;19.74;61.53;96225.81;10528989;28;20308;-29
2023/07/28 08:29:12;;;;;;;6.00;1.42;;;;;;;19.72;61.24;96235.16;10517336;28;20112;-28
2023/07/28 08:34:12;;;;;;;1.40;1.30;;;;;;;19.72;61.07;96244.44;10536961;28;20035;-28
2023/07/28 08:39:14;;;;;;;3.22;1.70;;;;;;;19.75;61.01;96240.19;10535367;28;20293;-28
2023/07/28 08:44:16;;;;;;;1.83;1.50;;;;;;;19.74;61.31;96237.66;10533646;28;20036;-29
2023/07/28 08:49:16;;;;;;;5.53;2.20;;;;;;;19.85;63.76;96246.81;10534982;28;20101;-28
2023/07/28 08:54:17;;;;;;;12.70;2.37;;;;;;;19.95;64.14;96243.31;10520398;28;20218;-29
2023/07/28 08:59:26;;;;;;;8.73;3.00;;;;;;;19.95;63.58;96240.78;10523915;28;20478;-28
2023/07/28 09:04:26;;;;;;;12.90;2.50;;;;;;;19.88;62.22;96245.94;10550706;28;20032;-28
2023/07/28 09:09:31;;;;;;;7.93;2.30;;;;;;;19.82;61.78;96249.41;10545371;28;20071;-29
2023/07/28 09:14:35;;;;;;;18.67;2.85;;;;;;;19.80;61.64;96261.28;10539387;28;20249;-29
2023/07/28 09:19:50;;;;;;;14.65;2.83;;;;;;;19.79;61.91;96251.13;10530269;28;20115;-28
2023/07/28 09:24:51;;;;;;;5.75;2.90;;;;;;;19.80;62.15;96242.66;10532123;28;20506;-29
2023/07/28 09:29:54;;;;;;;9.18;3.13;;;;;;;19.78;61.79;96252.00;10526636;28;20076;-28
2023/07/28 09:35:12;;;;;;;13.55;4.63;;;;;;;19.78;61.84;96259.63;10529504;28;20033;-28
2023/07/28 09:40:17;;;;;;;16.73;3.25;;;;;;;19.78;61.84;96247.78;10547641;28;20039;-28
2023/07/28 09:45:18;;;;;;;6.32;2.25;;;;;;;19.96;65.07;96255.16;10524969;28;20048;-29
2023/07/28 09:50:23;;;;;;;12.07;3.03;;;;;;;20.04;64.73;96245.78;10511633;28;20144;-28
2023/07/28 09:55:24;;;;;;;12.37;3.43;;;;;;;20.01;63.37;96239.84;10516467;28;20108;-29
2023/07/28 10:00:25;;;;;;;15.70;5.32;;;;;;;19.90;61.71;96249.28;10522773;28;20038;-29
2023/07/28 10:05:27;;;;;;;14.93;4.18;;;;;;;19.81;61.63;96231.63;10527151;28;20038;-28
2023/07/28 10:10:28;;;;;;;8.07;3.83;;;;;;;19.83;61.50;96247.72;10521926;28;20016;-29
2023/07/28 10:15:31;;;;;;;25.48;5.13;;;;;;;19.88;62.53;96248.47;10524126;28;20046;-28
2023/07/28 10:20:34;;;;;;;20.20;5.38;;;;;;;19.79;62.58;96220.66;10526932;28;20127;-28
2023/07/28 10:25:37;;;;;;;7.15;3.00;;;;;;;19.87;63.86;96239.19;10524811;28;20374;-29
2023/07/28 10:30:50;;;;;;;14.55;3.78;;;;;;;19.82;62.32;96241.78;10524206;28;20024;-29
2023/07/28 10:35:50;;;;;;;22.15;5.93;;;;;;;19.82;62.01;96251.94;10535166;28;20047;-28
2023/07/28 10:40:51;;;;;;;13.60;3.97;;;;;;;20.02;65.95;96260.13;10530854;28;20407;-28
2023/07/28 10:45:51;;;;;;;17.17;3.27;;;;;;;20.11;65.12;96264.31;10530887;28;20818;-28
2023/07/28 10:50:52;;;;;;;10.73;4.00;;;;;;;20.05;63.06;96261.84;10526845;28;20036;-27
2023/07/28 10:55:52;;;;;;;8.90;3.92;;;;;;;19.91;61.91;96256.91;10523543;28;20040;-28
2023/07/28 11:00:53;;;;;;;37.83;7.22;;;;;;;19.91;64.69;96251.81;10532548;28;20107;-30
2023/07/28 11:05:54;;;;;;;20.90;4.87;;;;;;;19.87;61.81;96256.97;10539546;28;20047;-29
2023/07/28 11:10:55;;;;;;;21.48;5.70;;;;;;;19.87;63.91;96255.28;10529749;28;20021;-28
2023/07/28 11:15:55;;;;;;;16.50;6.50;;;;;;;19.87;62.07;96250.19;10536548;28;20028;-28
2023/07/28 11:20:56;;;;;;;18.73;6.03;;;;;;;19.84;61.92;96246.84;10535062;28;20819;-28
2023/07/28 11:25:56;;;;;;;15.57;5.03;;;;;;;19.84;61.81;96239.25;10539367;28;20274;-29
2023/07/28 11:30:57;;;;;;;20.07;4.40;;;;;;;19.85;62.39;96240.91;10537502;28;20776;-28
2023/07/28 11:35:57;;;;;;;13.85;5.28;;;;;;;20.06;65.62;96243.19;10538985;28;20070;-29
2023/07/28 11:40:58;;;;;;;13.00;3.90;;;;;;;20.10;65.20;96237.22;10537751;28;20046;-29
2023/07/28 11:45:58;;;;;;;14.27;4.18;;;;;;;20.03;63.71;96240.66;10537937;28;20034;-29
2023/07/28 11:51:00;;;;;;;12.82;5.05;;;;;;;19.96;63.67;96234.84;10538360;28;20042;-28
2023/07/28 11:56:02;;;;;;;10.05;3.75;;;;;;;19.92;63.71;96237.44;10537612;28;20529;-29
2023/07/28 12:01:08;;;;;;;11.35;4.50;;;;;;;19.90;63.26;96239.13;10523207;28;20036;-28
2023/07/28 12:06:09;;;;;;;9.93;3.80;;;;;;;19.88;63.27;96223.06;10525248;28;20478;-28
2023/07/28 12:11:14;;;;;;;9.98;3.33;;;;;;;19.87;63.21;96229.88;10525419;28;20524;-27
2023/07/28 12:16:38;;;;;;;8.85;3.55;;;;;;;19.87;62.92;96229.03;10530946;28;20043;-28
2023/07/28 12:21:39;;;;;;;9.55;3.55;;;;;;;19.87;63.17;96245.13;10522363;28;20055;-27
2023/07/28 12:26:40;;;;;;;11.77;3.53;;;;;;;19.96;66.20;96239.91;10531897;28;20032;-28
2023/07/28 12:31:40;;;;;;;9.85;3.67;;;;;;;20.12;66.89;96248.19;10532577;28;20186;-28
2023/07/28 12:36:41;;;;;;;9.47;3.50;;;;;;;20.12;65.21;96248.19;10531669;28;20085;-29
2023/07/28 12:41:41;;;;;;;8.60;3.75;;;;;;;19.97;63.78;96233.13;10531156;28;20043;-29
2023/07/28 12:46:42;;;;;;;6.23;3.20;;;;;;;19.95;63.14;96252.63;10529194;28;20452;-29
2023/07/28 12:51:42;;;;;;;8.63;3.17;;;;;;;19.92;63.06;96252.69;10535361;28;20111;-28
2023/07/28 12:56:43;;;;;;;5.27;2.77;;;;;;;19.91;63.00;96258.63;10526872;28;20377;-28
2023/07/28 13:01:43;;;;;;;5.63;2.60;;;;;;;19.88;62.82;96261.19;10534957;28;20078;-28
2023/07/28 13:06:43;;;;;;;6.13;3.67;;;;;;;19.84;62.79;96264.63;10534331;28;20039;-29
2023/07/28 13:11:44;;;;;;;6.57;2.83;;;;;;;19.87;62.84;96279.84;10527584;28;20648;-29
2023/07/28 13:16:44;;;;;;;5.00;2.80;;;;;;;19.88;62.84;96327.25;10530062;28;20042;-29
2023/07/28 13:21:44;;;;;;;6.30;2.90;;;;;;;20.04;65.76;96324.53;10523285;28;20551;-28
2023/07/28 13:26:45;;;;;;;5.53;2.37;;;;;;;20.14;65.91;96302.38;10520992;28;20044;-28
2023/07/28 13:31:45;;;;;;;8.53;2.70;;;;;;;20.12;63.86;96286.31;10533903;28;20046;-28
2023/07/28 13:36:45;;;;;;;3.40;2.60;;;;;;;20.00;63.10;96301.69;10523473;28;20683;-28
2023/07/28 13:41:46;;;;;;;10.10;3.37;;;;;;;19.95;62.75;96300.91;10520228;28;20047;-28
2023/07/28 13:46:46;;;;;;;6.63;2.30;;;;;;;19.90;62.64;96285.72;10533777;28;20036;-28
2023/07/28 13:51:46;;;;;;;5.73;2.00;;;;;;;19.89;62.68;96284.03;10522718;28;20035;-28
2023/07/28 13:56:47;;;;;;;6.30;2.30;;;;;;;19.89;62.72;96296.75;10524580;28;20400;-29
2023/07/28 14:01:49;;;;;;;4.70;2.72;;;;;;;19.88;62.96;96282.38;10524504;28;20517;-28
2023/07/28 14:06:49;;;;;;;5.30;2.65;;;;;;;19.89;62.94;96273.88;10531913;28;20035;-28
2023/07/28 14:11:49;;;;;;;8.93;3.43;;;;;;;19.83;62.80;96268.88;10524614;28;20401;-28
2023/07/28 14:16:50;;;;;;;6.40;3.27;;;;;;;19.97;66.16;96240.72;10532529;28;20392;-28
2023/07/28 14:21:50;;;;;;;5.25;3.15;;;;;;;20.11;66.19;96254.97;10529951;28;20102;-28
2023/07/28 14:26:50;;;;;;;7.67;2.33;;;;;;;20.14;64.18;96264.25;10527188;28;20516;-28
2023/07/28 14:31:51;;;;;;;5.03;2.40;;;;;;;20.03;63.05;96266.06;10526644;28;20024;-29
2023/07/28 14:36:51;;;;;;;6.20;2.37;;;;;;;19.97;62.74;96273.75;10530099;28;20043;-28
2023/07/28 14:41:51;;;;;;;3.42;1.80;;;;;;;19.94;62.52;96271.28;10518152;28;20073;-28
2023/07/28 14:46:52;;;;;;;4.47;1.93;;;;;;;19.91;62.79;96276.41;10531850;28;20107;-28
2023/07/28 14:51:52;;;;;;;6.37;2.77;;;;;;;19.92;62.70;96275.56;10524466;28;20051;-28
2023/07/28 14:56:52;;;;;;;6.90;2.10;;;;;;;19.89;62.66;96288.28;10519541;28;20588;-29
2023/07/28 15:01:53;;;;;;;3.73;1.97;;;;;;;19.82;62.38;96287.50;10531804;28;20452;-28
2023/07/28 15:06:53;;;;;;;4.60;2.37;;;;;;;19.91;63.51;96311.97;10531210;28;20632;-28
2023/07/28 15:11:53;;;;;;;4.53;2.73;;;;;;;20.11;66.45;96294.81;10521372;28;20036;-28
2023/07/28 15:16:54;;;;;;;4.03;2.40;;;;;;;20.17;65.18;96297.28;10529272;28;20402;-28
2023/07/28 15:21:54;;;;;;;3.93;2.10;;;;;;;20.09;63.55;96296.53;10524916;28;20509;-28
2023/07/28 15:26:54;;;;;;;2.77;2.07;;;;;;;20.00;62.85;96296.63;10530878;28;20490;-31
2023/07/28 15:31:55;;;;;;;2.90;2.03;;;;;;;19.94;62.36;96292.44;10528820;28;20020;-28
2023/07/28 15:36:56;;;;;;;10.07;2.67;;;;;;;19.94;62.65;96302.59;10530604;28;20063;-28
2023/07/28 15:41:59;;;;;;;5.88;2.20;;;;;;;19.90;62.57;96284.88;10529294;28;20409;-29
2023/07/28 15:46:59;;;;;;;11.20;2.75;;;;;;;19.89;63.11;96267.94;10530715;28;20039;-28
2023/07/28 15:51:59;;;;;;;19.23;2.97;;;;;;;19.91;62.44;96286.56;10530156;28;20030;-27
2023/07/28 15:57:00;;;;;;;17.47;3.47;;;;;;;20.02;66.02;96280.47;10526303;28;20042;-28
2023/07/28 16:02:00;;;;;;;8.20;2.73;;;;;;;20.16;67.16;96278.63;10536822;28;20028;-28
2023/07/28 16:07:00;;;;;;;12.02;2.83;;;;;;;20.18;65.77;96321.81;10531694;28;20059;-28
2023/07/28 16:12:01;;;;;;;10.37;3.17;;;;;;;20.04;64.57;96319.47;10531737;28;20401;-29
2023/07/28 16:17:01;;;;;;;8.50;2.80;;;;;;;20.00;63.18;96316.94;10539128;28;20387;-27
2023/07/28 16:22:01;;;;;;;5.37;1.80;;;;;;;19.97;62.87;96319.50;10534811;28;20029;-29
2023/07/28 16:27:02;;;;;;;8.23;2.05;;;;;;;19.94;62.82;96327.19;10521942;28;20031;-28
2023/07/28 16:32:03;;;;;;;4.72;1.92;;;;;;;19.92;62.56;96318.75;10536596;28;20107;-28
2023/07/28 16:37:03;;;;;;;12.18;3.47;;;;;;;20.13;67.00;96314.25;10530175;28;20036;-28
2023/07/28 16:42:06;;;;;;;4.05;2.50;;;;;;;20.18;65.72;96302.31;10534701;28;20052;-29
2023/07/28 16:47:06;;;;;;;14.68;3.25;;;;;;;20.11;64.46;96310.06;10531200;28;20024;-28
2023/07/28 16:52:06;;;;;;;9.57;2.00;;;;;;;20.02;63.98;96302.50;10536168;28;20032;-29
2023/07/28 16:57:08;;;;;;;9.30;2.67;;;;;;;19.88;64.33;96304.38;10527860;28;20039;-28
2023/07/28 17:02:08;;;;;;;9.05;1.83;;;;;;;19.97;63.46;96312.75;10534402;28;20298;-28
2023/07/28 17:07:09;;;;;;;5.70;1.93;;;;;;;19.97;62.85;96327.97;10518001;28;20421;-28
2023/07/28 17:12:10;;;;;;;5.47;2.53;;;;;;;19.94;62.59;96317.00;10526508;28;20398;-28
2023/07/28 17:17:10;;;;;;;10.60;3.57;;;;;;;19.98;63.15;96318.66;10518593;28;20371;-28
2023/07/28 17:22:10;;;;;;;6.47;2.70;;;;;;;20.17;67.13;96325.22;10528782;28;20040;-28
2023/07/28 17:27:11;;;;;;;12.43;2.53;;;;;;;20.21;65.16;96331.94;10531355;28;20058;-28
2023/07/28 17:32:11;;;;;;;9.53;2.13;;;;;;;20.12;63.64;96332.91;10528780;28;20313;-28
2023/07/28 17:37:14;;;;;;;5.85;2.33;;;;;;;20.02;62.91;96321.13;10525166;28;20665;-28
2023/07/28 17:42:14;;;;;;;5.57;2.28;;;;;;;19.96;62.46;96315.28;10534396;28;20042;-29
2023/07/28 17:47:15;;;;;;;6.15;1.73;;;;;;;19.97;62.76;96316.97;10532690;28;20119;-28
2023/07/28 17:52:16;;;;;;;6.68;1.77;;;;;;;19.94;62.35;96317.84;10532901;28;20028;-28
2023/07/28 17:57:16;;;;;;;4.70;2.10;;;;;;;19.95;62.73;96318.69;10507842;28;20031;-29
2023/07/28 18:02:17;;;;;;;6.22;1.90;;;;;;;19.94;62.32;96311.94;10533386;28;20032;-28
2023/07/28 18:07:17;;;;;;;11.52;2.75;;;;;;;20.10;67.52;96308.38;10530596;28;20402;-29
2023/07/28 18:12:18;;;;;;;4.13;2.13;;;;;;;20.21;66.56;96303.97;10525529;28;20470;-29
2023/07/28 18:17:20;;;;;;;5.70;2.00;;;;;;;20.14;65.46;96300.69;10526809;28;20513;-29
2023/07/28 18:22:20;;;;;;;11.88;2.60;;;;;;;20.07;64.01;96304.16;10528583;28;20038;-28
2023/07/28 18:27:21;;;;;;;6.10;2.33;;;;;;;20.02;63.16;96310.13;10536994;28;20513;-28
2023/07/28 18:32:21;;;;;;;5.30;1.93;;;;;;;19.98;63.13;96313.56;10525111;28;20036;-29
2023/07/28 18:37:21;;;;;;;4.33;1.97;;;;;;;19.96;63.04;96310.19;10522617;28;20036;-29
2023/07/28 18:42:22;;;;;;;5.00;2.13;;;;;;;19.96;62.86;96325.44;10531587;28;20038;-28
2023/07/28 18:47:22;;;;;;;3.80;1.47;;;;;;;19.90;63.00;96317.91;10532629;28;20081;-28
2023/07/28 18:52:22;;;;;;;8.20;2.23;;;;;;;20.02;66.59;96330.47;10531545;28;20108;-29
2023/07/28 18:57:23;;;;;;;6.60;2.50;;;;;;;20.15;67.95;96332.88;10531290;28;20036;-28
2023/07/28 19:02:24;;;;;;;7.72;2.83;;;;;;;20.20;66.18;96350.59;10532128;28;20785;-29
2023/07/28 19:07:24;;;;;;;7.68;1.92;;;;;;;20.13;65.31;96352.38;10531009;28;20120;-29
2023/07/28 19:12:24;;;;;;;4.50;1.77;;;;;;;20.06;64.66;96358.41;10525496;28;20478;-28
2023/07/28 19:17:25;;;;;;;6.37;2.17;;;;;;;20.01;64.27;96369.44;10524819;28;20285;-28
2023/07/28 19:22:25;;;;;;;6.33;2.53;;;;;;;19.97;63.73;96355.06;10528686;28;20043;-28
2023/07/28 19:27:25;;;;;;;4.60;1.97;;;;;;;19.96;63.24;96353.41;10538651;28;20043;-29
2023/07/28 19:32:26;;;;;;;4.37;2.00;;;;;;;19.95;62.96;96366.97;10541883;28;20028;-29
2023/07/28 19:37:26;;;;;;;2.17;1.35;;;;;;;19.94;62.96;96372.91;10528918;28;20119;-28
2023/07/28 19:42:27;;;;;;;6.27;2.37;;;;;;;20.08;65.47;96355.84;10538280;28;20122;-29
2023/07/28 19:47:27;;;;;;;5.30;2.53;;;;;;;20.09;67.59;96344.81;10539617;28;20031;-29
2023/07/28 19:52:27;;;;;;;3.72;1.70;;;;;;;20.20;65.52;96355.69;10530058;28;20393;-29
2023/07/28 19:57:28;;;;;;;5.73;1.73;;;;;;;20.12;64.84;96360.03;10537284;28;20036;-29
2023/07/28 20:02:28;;;;;;;2.83;1.90;;;;;;;20.00;64.53;96360.16;10538289;28;20050;-28
2023/07/28 20:07:28;;;;;;;4.20;1.70;;;;;;;20.02;64.26;96361.78;10541889;28;20061;-28
2023/07/28 20:12:30;;;;;;;3.03;1.83;;;;;;;19.99;63.56;96360.97;10530903;28;20024;-29
2023/07/28 20:17:30;;;;;;;3.00;1.30;;;;;;;19.95;63.21;96354.25;10530629;28;20028;-27
2023/07/28 20:22:30;;;;;;;4.15;2.55;;;;;;;19.95;63.28;96357.66;10533448;28;20028;-29
2023/07/28 20:27:32;;;;;;;3.33;1.93;;;;;;;19.96;63.62;96358.47;10523216;28;20032;-29
2023/07/28 20:32:32;;;;;;;6.00;2.10;;;;;;;20.10;66.92;96367.66;10535942;28;20028;-29
2023/07/28 20:37:33;;;;;;;4.03;2.00;;;;;;;20.20;68.14;96376.03;10534264;28;20406;-28
2023/07/28 20:42:33;;;;;;;4.32;1.90;;;;;;;20.20;65.30;96365.84;10536223;28;20035;-28
2023/07/28 20:47:33;;;;;;;1.97;1.50;;;;;;;20.09;65.18;96357.53;10535791;28;20417;-29
2023/07/28 20:52:34;;;;;;;4.20;1.50;;;;;;;20.04;64.81;96365.22;10530778;28;20675;-26
2023/07/28 20:57:34;;;;;;;5.07;2.37;;;;;;;20.00;64.01;96367.78;10531334;28;20286;-30
2023/07/28 21:02:35;;;;;;;2.90;1.45;;;;;;;19.99;63.40;96371.13;10535361;28;20298;-29
2023/07/28 21:07:35;;;;;;;5.00;2.15;;;;;;;19.96;63.35;96372.03;10532015;28;20046;-30
2023/07/28 21:12:35;;;;;;;2.80;1.20;;;;;;;19.96;63.05;96366.09;10523162;28;20024;-28
2023/07/28 21:17:36;;;;;;;1.90;1.30;;;;;;;19.94;63.10;96371.19;10505782;28;20646;-28
2023/07/28 21:22:36;;;;;;;3.83;2.10;;;;;;;20.12;67.23;96360.03;10521243;28;20047;-29
2023/07/28 21:27:38;;;;;;;3.17;2.10;;;;;;;20.19;66.32;96354.00;10521873;28;20394;-28
2023/07/28 21:32:38;;;;;;;3.88;1.90;;;;;;;20.17;64.15;96345.56;10516700;28;20055;-28
2023/07/28 21:37:39;;;;;;;2.03;1.23;;;;;;;20.07;64.84;96339.75;10509183;28;20118;-29
2023/07/28 21:42:39;;;;;;;4.07;1.53;;;;;;;20.00;64.02;96340.63;10525745;28;20653;-28
2023/07/28 21:47:40;;;;;;;2.47;1.20;;;;;;;19.99;63.38;96331.34;10525087;28;20281;-29
2023/07/28 21:52:42;;;;;;;3.43;1.17;;;;;;;19.97;63.40;96339.84;10529949;28;20034;-28
2023/07/28 21:57:45;;;;;;;4.38;1.63;;;;;;;19.94;63.07;96329.72;10517851;28;20490;-29
2023/07/28 22:02:46;;;;;;;4.15;1.42;;;;;;;19.93;63.00;96336.47;10532593;28;20047;-29
2023/07/28 22:07:47;;;;;;;7.43;1.73;;;;;;;19.97;63.71;96338.16;10532470;28;20032;-28
2023/07/28 22:12:47;;;;;;;2.67;1.50;;;;;;;20.14;67.71;96330.34;10525447;28;20279;-28
2023/07/28 22:17:48;;;;;;;2.30;1.53;;;;;;;20.21;66.80;96330.25;10533268;28;20039;-28
2023/07/28 22:22:48;;;;;;;3.23;1.50;;;;;;;20.16;64.28;96318.44;10532336;28;20341;-28
2023/07/28 22:27:48;;;;;;;1.70;1.40;;;;;;;20.07;64.73;96321.97;10531949;28;20027;-28
2023/07/28 22:32:49;;;;;;;3.20;1.20;;;;;;;20.04;63.95;96318.56;10532742;28;20390;-29
2023/07/28 22:37:49;;;;;;;2.30;1.17;;;;;;;19.99;63.93;96307.63;10531682;28;20040;-28
2023/07/28 22:42:50;;;;;;;2.07;1.10;;;;;;;19.98;63.46;96303.41;10531635;28;20496;-28
2023/07/28 22:47:50;;;;;;;2.00;1.20;;;;;;;19.96;62.97;96313.59;10532655;28;20028;-28
2023/07/28 22:52:51;;;;;;;4.93;1.23;;;;;;;19.95;63.17;96316.16;10529189;28;20032;-28
2023/07/28 22:57:51;;;;;;;2.90;1.43;;;;;;;19.98;63.96;96319.50;10527994;28;20277;-29
2023/07/28 23:02:52;;;;;;;2.20;1.37;;;;;;;20.16;66.79;96305.72;10540348;28;20656;-28
2023/07/28 23:07:52;;;;;;;3.20;1.88;;;;;;;20.19;66.68;96298.09;10532340;28;20394;-29
2023/07/28 23:12:52;;;;;;;2.00;1.30;;;;;;;20.11;64.55;96292.25;10530489;28;20652;-28
2023/07/28 23:17:53;;;;;;;1.67;1.10;;;;;;;20.06;64.88;96294.00;10530250;28;20508;-29